<?xml version="1.0" encoding="UTF-8"?>
<gpx
  version="1.0"
  creator="GPSBabel - http://www.gpsbabel.org"
  xmlns:xsi="http://www.w3.org/2001/XMLSchema-instance"
  xmlns="http://www.topografix.com/GPX/1/0"
  xsi:schemaLocation="http://www.topografix.com/GPX/1/0 http://www.topografix.com/GPX/1/0/gpx.xsd">
<time>2012-06-07T16:26:19Z</time>
<bounds minlat="46.599755287" minlon="6.348767281" maxlat="46.649880409" maxlon="6.377112865"/>
<trk>
  <name>07-JUN-12</name>
<trkseg>
<trkpt lat="46.599798203" lon="6.375203133">
  <ele>747.081543</ele>
  <time>2012-06-07T11:57:16Z</time>
</trkpt>
<trkpt lat="46.599841118" lon="6.375203133">
  <ele>747.562256</ele>
  <time>2012-06-07T12:00:06Z</time>
</trkpt>
<trkpt lat="46.599755287" lon="6.375503540">
  <ele>749.004395</ele>
  <time>2012-06-07T12:00:52Z</time>
</trkpt>
<trkpt lat="46.599798203" lon="6.375997066">
  <ele>751.407715</ele>
  <time>2012-06-07T12:01:07Z</time>
</trkpt>
<trkpt lat="46.599926949" lon="6.376297474">
  <ele>752.368896</ele>
  <time>2012-06-07T12:01:19Z</time>
</trkpt>
<trkpt lat="46.600141525" lon="6.376576424">
  <ele>754.772217</ele>
  <time>2012-06-07T12:01:33Z</time>
</trkpt>
<trkpt lat="46.600377560" lon="6.376597881">
  <ele>756.214111</ele>
  <time>2012-06-07T12:01:45Z</time>
</trkpt>
<trkpt lat="46.600549221" lon="6.376726627">
  <ele>759.578857</ele>
  <time>2012-06-07T12:01:59Z</time>
</trkpt>
<trkpt lat="46.600763798" lon="6.376941204">
  <ele>760.540039</ele>
  <time>2012-06-07T12:02:16Z</time>
</trkpt>
<trkpt lat="46.600763798" lon="6.376962662">
  <ele>761.020752</ele>
  <time>2012-06-07T12:02:31Z</time>
</trkpt>
<trkpt lat="46.600871086" lon="6.377048492">
  <ele>763.424072</ele>
  <time>2012-06-07T12:02:47Z</time>
</trkpt>
<trkpt lat="46.601042747" lon="6.377112865">
  <ele>766.308105</ele>
  <time>2012-06-07T12:02:58Z</time>
</trkpt>
<trkpt lat="46.601235867" lon="6.377112865">
  <ele>768.230713</ele>
  <time>2012-06-07T12:03:11Z</time>
</trkpt>
<trkpt lat="46.601407528" lon="6.376984119">
  <ele>768.711426</ele>
  <time>2012-06-07T12:03:23Z</time>
</trkpt>
<trkpt lat="46.601557732" lon="6.376705170">
  <ele>771.114746</ele>
  <time>2012-06-07T12:03:39Z</time>
</trkpt>
<trkpt lat="46.601686478" lon="6.375997066">
  <ele>778.805176</ele>
  <time>2012-06-07T12:04:11Z</time>
</trkpt>
<trkpt lat="46.601750851" lon="6.374967098">
  <ele>783.611816</ele>
  <time>2012-06-07T12:04:42Z</time>
</trkpt>
<trkpt lat="46.601943970" lon="6.374409199">
  <ele>785.534424</ele>
  <time>2012-06-07T12:04:56Z</time>
</trkpt>
<trkpt lat="46.602029800" lon="6.374258995">
  <ele>785.534424</ele>
  <time>2012-06-07T12:04:59Z</time>
</trkpt>
<trkpt lat="46.602072716" lon="6.373851299">
  <ele>785.534424</ele>
  <time>2012-06-07T12:05:05Z</time>
</trkpt>
<trkpt lat="46.602051258" lon="6.373636723">
  <ele>785.534424</ele>
  <time>2012-06-07T12:05:08Z</time>
</trkpt>
<trkpt lat="46.602008343" lon="6.373400688">
  <ele>785.534424</ele>
  <time>2012-06-07T12:05:11Z</time>
</trkpt>
<trkpt lat="46.601901054" lon="6.373207569">
  <ele>786.015137</ele>
  <time>2012-06-07T12:05:14Z</time>
</trkpt>
<trkpt lat="46.601128578" lon="6.372671127">
  <ele>785.053955</ele>
  <time>2012-06-07T12:05:28Z</time>
</trkpt>
<trkpt lat="46.601042747" lon="6.372263432">
  <ele>784.573242</ele>
  <time>2012-06-07T12:05:33Z</time>
</trkpt>
<trkpt lat="46.601343155" lon="6.370975971">
  <ele>782.650635</ele>
  <time>2012-06-07T12:05:44Z</time>
</trkpt>
<trkpt lat="46.601257324" lon="6.370482445">
  <ele>781.689209</ele>
  <time>2012-06-07T12:05:48Z</time>
</trkpt>
<trkpt lat="46.601214409" lon="6.369795799">
  <ele>779.285645</ele>
  <time>2012-06-07T12:05:58Z</time>
</trkpt>
<trkpt lat="46.601042747" lon="6.369130611">
  <ele>778.324463</ele>
  <time>2012-06-07T12:06:09Z</time>
</trkpt>
<trkpt lat="46.600742340" lon="6.368529797">
  <ele>779.766357</ele>
  <time>2012-06-07T12:06:20Z</time>
</trkpt>
<trkpt lat="46.600570679" lon="6.368057728">
  <ele>779.766357</ele>
  <time>2012-06-07T12:06:30Z</time>
</trkpt>
<trkpt lat="46.600635052" lon="6.367628574">
  <ele>779.766357</ele>
  <time>2012-06-07T12:06:45Z</time>
</trkpt>
<trkpt lat="46.600806713" lon="6.367285252">
  <ele>782.169922</ele>
  <time>2012-06-07T12:07:05Z</time>
</trkpt>
<trkpt lat="46.601064205" lon="6.366899014">
  <ele>795.147461</ele>
  <time>2012-06-07T12:07:28Z</time>
</trkpt>
<trkpt lat="46.601235867" lon="6.366577148">
  <ele>795.628174</ele>
  <time>2012-06-07T12:07:46Z</time>
</trkpt>
<trkpt lat="46.601278782" lon="6.366212368">
  <ele>797.070313</ele>
  <time>2012-06-07T12:08:02Z</time>
</trkpt>
<trkpt lat="46.601386070" lon="6.365911961">
  <ele>798.031738</ele>
  <time>2012-06-07T12:08:18Z</time>
</trkpt>
<trkpt lat="46.601579189" lon="6.365890503">
  <ele>800.435059</ele>
  <time>2012-06-07T12:08:33Z</time>
</trkpt>
<trkpt lat="46.601815224" lon="6.366126537">
  <ele>800.435059</ele>
  <time>2012-06-07T12:08:53Z</time>
</trkpt>
<trkpt lat="46.601986885" lon="6.366705894">
  <ele>805.241455</ele>
  <time>2012-06-07T12:09:16Z</time>
</trkpt>
<trkpt lat="46.602072716" lon="6.367156506">
  <ele>812.451416</ele>
  <time>2012-06-07T12:09:33Z</time>
</trkpt>
<trkpt lat="46.602458954" lon="6.367886066">
  <ele>817.258057</ele>
  <time>2012-06-07T12:10:10Z</time>
</trkpt>
<trkpt lat="46.602523327" lon="6.368250847">
  <ele>824.948486</ele>
  <time>2012-06-07T12:10:27Z</time>
</trkpt>
<trkpt lat="46.602630615" lon="6.368637085">
  <ele>830.235840</ele>
  <time>2012-06-07T12:10:43Z</time>
</trkpt>
<trkpt lat="46.602866650" lon="6.368744373">
  <ele>833.119629</ele>
  <time>2012-06-07T12:10:57Z</time>
</trkpt>
<trkpt lat="46.603188515" lon="6.368615627">
  <ele>835.042480</ele>
  <time>2012-06-07T12:11:14Z</time>
</trkpt>
<trkpt lat="46.603617668" lon="6.368830204">
  <ele>835.522949</ele>
  <time>2012-06-07T12:11:41Z</time>
</trkpt>
<trkpt lat="46.603767872" lon="6.368572712">
  <ele>838.887695</ele>
  <time>2012-06-07T12:11:59Z</time>
</trkpt>
<trkpt lat="46.603574753" lon="6.367843151">
  <ele>842.732910</ele>
  <time>2012-06-07T12:12:31Z</time>
</trkpt>
<trkpt lat="46.603703499" lon="6.367585659">
  <ele>846.578369</ele>
  <time>2012-06-07T12:12:43Z</time>
</trkpt>
<trkpt lat="46.603960991" lon="6.367371082">
  <ele>847.539551</ele>
  <time>2012-06-07T12:13:00Z</time>
</trkpt>
<trkpt lat="46.604197025" lon="6.367242336">
  <ele>849.942871</ele>
  <time>2012-06-07T12:13:17Z</time>
</trkpt>
<trkpt lat="46.604454517" lon="6.367199421">
  <ele>854.749268</ele>
  <time>2012-06-07T12:13:33Z</time>
</trkpt>
<trkpt lat="46.605076790" lon="6.367306709">
  <ele>871.572266</ele>
  <time>2012-06-07T12:14:09Z</time>
</trkpt>
<trkpt lat="46.605441570" lon="6.367220879">
  <ele>872.533691</ele>
  <time>2012-06-07T12:14:30Z</time>
</trkpt>
<trkpt lat="46.605806351" lon="6.367006302">
  <ele>873.975586</ele>
  <time>2012-06-07T12:14:56Z</time>
</trkpt>
<trkpt lat="46.606407166" lon="6.366941929">
  <ele>874.456299</ele>
  <time>2012-06-07T12:15:31Z</time>
</trkpt>
<trkpt lat="46.607029438" lon="6.366813183">
  <ele>880.705078</ele>
  <time>2012-06-07T12:16:10Z</time>
</trkpt>
<trkpt lat="46.607415676" lon="6.366791725">
  <ele>888.395508</ele>
  <time>2012-06-07T12:16:34Z</time>
</trkpt>
<trkpt lat="46.607973576" lon="6.366984844">
  <ele>895.605469</ele>
  <time>2012-06-07T12:17:10Z</time>
</trkpt>
<trkpt lat="46.608145237" lon="6.366963387">
  <ele>898.489258</ele>
  <time>2012-06-07T12:17:24Z</time>
</trkpt>
<trkpt lat="46.608402729" lon="6.366899014">
  <ele>898.969971</ele>
  <time>2012-06-07T12:17:40Z</time>
</trkpt>
<trkpt lat="46.608660221" lon="6.366534233">
  <ele>899.450684</ele>
  <time>2012-06-07T12:18:01Z</time>
</trkpt>
<trkpt lat="46.608960629" lon="6.366362572">
  <ele>910.025146</ele>
  <time>2012-06-07T12:18:19Z</time>
</trkpt>
<trkpt lat="46.609175205" lon="6.366491318">
  <ele>911.467285</ele>
  <time>2012-06-07T12:18:35Z</time>
</trkpt>
<trkpt lat="46.609325409" lon="6.366319656">
  <ele>911.947998</ele>
  <time>2012-06-07T12:18:50Z</time>
</trkpt>
<trkpt lat="46.609132290" lon="6.365633011">
  <ele>916.754395</ele>
  <time>2012-06-07T12:19:30Z</time>
</trkpt>
<trkpt lat="46.608917713" lon="6.365525723">
  <ele>917.715576</ele>
  <time>2012-06-07T12:19:46Z</time>
</trkpt>
<trkpt lat="46.608552933" lon="6.365568638">
  <ele>922.041504</ele>
  <time>2012-06-07T12:20:07Z</time>
</trkpt>
<trkpt lat="46.608467102" lon="6.365139484">
  <ele>926.367676</ele>
  <time>2012-06-07T12:20:26Z</time>
</trkpt>
<trkpt lat="46.608338356" lon="6.364731789">
  <ele>927.329102</ele>
  <time>2012-06-07T12:20:44Z</time>
</trkpt>
<trkpt lat="46.608145237" lon="6.364431381">
  <ele>932.616211</ele>
  <time>2012-06-07T12:21:01Z</time>
</trkpt>
<trkpt lat="46.607866287" lon="6.364195347">
  <ele>935.980713</ele>
  <time>2012-06-07T12:21:20Z</time>
</trkpt>
<trkpt lat="46.607608795" lon="6.363894939">
  <ele>938.384033</ele>
  <time>2012-06-07T12:21:40Z</time>
</trkpt>
<trkpt lat="46.607501507" lon="6.363637447">
  <ele>939.345215</ele>
  <time>2012-06-07T12:21:53Z</time>
</trkpt>
<trkpt lat="46.607158184" lon="6.363294125">
  <ele>942.229492</ele>
  <time>2012-06-07T12:22:19Z</time>
</trkpt>
<trkpt lat="46.606492996" lon="6.363079548">
  <ele>949.439209</ele>
  <time>2012-06-07T12:23:03Z</time>
</trkpt>
<trkpt lat="46.606321335" lon="6.362650394">
  <ele>951.361816</ele>
  <time>2012-06-07T12:23:28Z</time>
</trkpt>
<trkpt lat="46.605656147" lon="6.362221241">
  <ele>953.284424</ele>
  <time>2012-06-07T12:24:16Z</time>
</trkpt>
<trkpt lat="46.605377197" lon="6.362156868">
  <ele>959.533203</ele>
  <time>2012-06-07T12:24:33Z</time>
</trkpt>
<trkpt lat="46.605291367" lon="6.362028122">
  <ele>962.897705</ele>
  <time>2012-06-07T12:24:40Z</time>
</trkpt>
<trkpt lat="46.605398655" lon="6.361942291">
  <ele>968.184814</ele>
  <time>2012-06-07T12:24:47Z</time>
</trkpt>
<trkpt lat="46.605978012" lon="6.361942291">
  <ele>983.565918</ele>
  <time>2012-06-07T12:25:25Z</time>
</trkpt>
<trkpt lat="46.606256962" lon="6.361856461">
  <ele>985.969238</ele>
  <time>2012-06-07T12:25:46Z</time>
</trkpt>
<trkpt lat="46.606471539" lon="6.361706257">
  <ele>988.372803</ele>
  <time>2012-06-07T12:26:01Z</time>
</trkpt>
<trkpt lat="46.606664658" lon="6.361663342">
  <ele>995.101807</ele>
  <time>2012-06-07T12:26:16Z</time>
</trkpt>
<trkpt lat="46.607007980" lon="6.361663342">
  <ele>1000.869629</ele>
  <time>2012-06-07T12:26:39Z</time>
</trkpt>
<trkpt lat="46.607244015" lon="6.361749172">
  <ele>1008.079834</ele>
  <time>2012-06-07T12:26:55Z</time>
</trkpt>
<trkpt lat="46.607716084" lon="6.361835003">
  <ele>1010.963623</ele>
  <time>2012-06-07T12:27:27Z</time>
</trkpt>
<trkpt lat="46.608059406" lon="6.361727715">
  <ele>1007.118408</ele>
  <time>2012-06-07T12:27:49Z</time>
</trkpt>
<trkpt lat="46.608338356" lon="6.361792088">
  <ele>1010.963623</ele>
  <time>2012-06-07T12:28:07Z</time>
</trkpt>
<trkpt lat="46.608681679" lon="6.361963749">
  <ele>1015.289551</ele>
  <time>2012-06-07T12:28:27Z</time>
</trkpt>
<trkpt lat="46.609025002" lon="6.362071037">
  <ele>1021.057617</ele>
  <time>2012-06-07T12:28:48Z</time>
</trkpt>
<trkpt lat="46.609239578" lon="6.362242699">
  <ele>1029.709229</ele>
  <time>2012-06-07T12:29:02Z</time>
</trkpt>
<trkpt lat="46.610398293" lon="6.362221241">
  <ele>1045.090332</ele>
  <time>2012-06-07T12:30:12Z</time>
</trkpt>
<trkpt lat="46.611471176" lon="6.362049580">
  <ele>1044.129150</ele>
  <time>2012-06-07T12:31:42Z</time>
</trkpt>
<trkpt lat="46.611278057" lon="6.362221241">
  <ele>1047.012939</ele>
  <time>2012-06-07T12:33:45Z</time>
</trkpt>
<trkpt lat="46.611278057" lon="6.362242699">
  <ele>1048.935547</ele>
  <time>2012-06-07T12:33:56Z</time>
</trkpt>
<trkpt lat="46.612222195" lon="6.362392902">
  <ele>1048.454834</ele>
  <time>2012-06-07T12:34:39Z</time>
</trkpt>
<trkpt lat="46.612436771" lon="6.362693310">
  <ele>1049.896973</ele>
  <time>2012-06-07T12:34:51Z</time>
</trkpt>
<trkpt lat="46.612458229" lon="6.363079548">
  <ele>1049.896973</ele>
  <time>2012-06-07T12:35:05Z</time>
</trkpt>
<trkpt lat="46.612393856" lon="6.363487244">
  <ele>1050.377686</ele>
  <time>2012-06-07T12:35:21Z</time>
</trkpt>
<trkpt lat="46.612544060" lon="6.363573074">
  <ele>1054.223145</ele>
  <time>2012-06-07T12:35:34Z</time>
</trkpt>
<trkpt lat="46.612951756" lon="6.363530159">
  <ele>1056.145508</ele>
  <time>2012-06-07T12:36:00Z</time>
</trkpt>
<trkpt lat="46.613445282" lon="6.363573074">
  <ele>1055.665039</ele>
  <time>2012-06-07T12:36:38Z</time>
</trkpt>
<trkpt lat="46.613788605" lon="6.363422871">
  <ele>1055.665039</ele>
  <time>2012-06-07T12:37:07Z</time>
</trkpt>
<trkpt lat="46.613981724" lon="6.363658905">
  <ele>1059.029541</ele>
  <time>2012-06-07T12:37:28Z</time>
</trkpt>
<trkpt lat="46.614089012" lon="6.364109516">
  <ele>1061.432861</ele>
  <time>2012-06-07T12:37:45Z</time>
</trkpt>
<trkpt lat="46.614303589" lon="6.364409924">
  <ele>1063.835938</ele>
  <time>2012-06-07T12:38:08Z</time>
</trkpt>
<trkpt lat="46.614625454" lon="6.364367008">
  <ele>1066.239258</ele>
  <time>2012-06-07T12:38:28Z</time>
</trkpt>
<trkpt lat="46.614882946" lon="6.364409924">
  <ele>1072.007324</ele>
  <time>2012-06-07T12:38:44Z</time>
</trkpt>
<trkpt lat="46.615118980" lon="6.364388466">
  <ele>1077.294678</ele>
  <time>2012-06-07T12:39:00Z</time>
</trkpt>
<trkpt lat="46.616020203" lon="6.364517212">
  <ele>1082.101074</ele>
  <time>2012-06-07T12:39:50Z</time>
</trkpt>
<trkpt lat="46.616234779" lon="6.364431381">
  <ele>1085.946533</ele>
  <time>2012-06-07T12:40:05Z</time>
</trkpt>
<trkpt lat="46.616213322" lon="6.364367008">
  <ele>1090.752930</ele>
  <time>2012-06-07T12:40:20Z</time>
</trkpt>
<trkpt lat="46.616234779" lon="6.364388466">
  <ele>1092.195068</ele>
  <time>2012-06-07T12:40:48Z</time>
</trkpt>
<trkpt lat="46.616213322" lon="6.364409924">
  <ele>1093.636963</ele>
  <time>2012-06-07T12:40:56Z</time>
</trkpt>
<trkpt lat="46.616041660" lon="6.364109516">
  <ele>1095.078857</ele>
  <time>2012-06-07T12:41:18Z</time>
</trkpt>
<trkpt lat="46.615655422" lon="6.363787651">
  <ele>1100.846924</ele>
  <time>2012-06-07T12:41:48Z</time>
</trkpt>
<trkpt lat="46.615548134" lon="6.363744736">
  <ele>1101.808350</ele>
  <time>2012-06-07T12:41:53Z</time>
</trkpt>
<trkpt lat="46.614732742" lon="6.363143921">
  <ele>1099.404785</ele>
  <time>2012-06-07T12:42:36Z</time>
</trkpt>
<trkpt lat="46.614453793" lon="6.362779140">
  <ele>1099.404785</ele>
  <time>2012-06-07T12:42:56Z</time>
</trkpt>
<trkpt lat="46.614046097" lon="6.362478733">
  <ele>1105.172852</ele>
  <time>2012-06-07T12:43:23Z</time>
</trkpt>
<trkpt lat="46.613788605" lon="6.362178326">
  <ele>1105.172852</ele>
  <time>2012-06-07T12:43:43Z</time>
</trkpt>
<trkpt lat="46.613616943" lon="6.361641884">
  <ele>1105.172852</ele>
  <time>2012-06-07T12:44:08Z</time>
</trkpt>
<trkpt lat="46.613466740" lon="6.360783577">
  <ele>1105.172852</ele>
  <time>2012-06-07T12:44:40Z</time>
</trkpt>
<trkpt lat="46.613123417" lon="6.360139847">
  <ele>1105.172852</ele>
  <time>2012-06-07T12:45:13Z</time>
</trkpt>
<trkpt lat="46.612565517" lon="6.359775066">
  <ele>1108.537354</ele>
  <time>2012-06-07T12:45:47Z</time>
</trkpt>
<trkpt lat="46.612393856" lon="6.359753609">
  <ele>1109.018066</ele>
  <time>2012-06-07T12:47:01Z</time>
</trkpt>
<trkpt lat="46.613574028" lon="6.360332966">
  <ele>1109.018066</ele>
  <time>2012-06-07T12:47:43Z</time>
</trkpt>
<trkpt lat="46.613981724" lon="6.360375881">
  <ele>1109.018066</ele>
  <time>2012-06-07T12:48:08Z</time>
</trkpt>
<trkpt lat="46.615483761" lon="6.360204220">
  <ele>1109.018066</ele>
  <time>2012-06-07T12:50:06Z</time>
</trkpt>
<trkpt lat="46.616899967" lon="6.360204220">
  <ele>1109.018066</ele>
  <time>2012-06-07T12:51:40Z</time>
</trkpt>
<trkpt lat="46.617286205" lon="6.361298561">
  <ele>1109.018066</ele>
  <time>2012-06-07T12:53:56Z</time>
</trkpt>
<trkpt lat="46.616792679" lon="6.360998154">
  <ele>1223.895508</ele>
  <time>2012-06-07T12:56:49Z</time>
</trkpt>
<trkpt lat="46.617114544" lon="6.361234188">
  <ele>1223.895508</ele>
  <time>2012-06-07T12:57:05Z</time>
</trkpt>
<trkpt lat="46.617672443" lon="6.361448765">
  <ele>1217.646973</ele>
  <time>2012-06-07T12:57:27Z</time>
</trkpt>
<trkpt lat="46.617758274" lon="6.361405849">
  <ele>1216.685791</ele>
  <time>2012-06-07T12:57:43Z</time>
</trkpt>
<trkpt lat="46.617543697" lon="6.361534595">
  <ele>1213.321289</ele>
  <time>2012-06-07T12:57:57Z</time>
</trkpt>
<trkpt lat="46.617693901" lon="6.361577511">
  <ele>1213.321289</ele>
  <time>2012-06-07T12:58:15Z</time>
</trkpt>
<trkpt lat="46.617865562" lon="6.361405849">
  <ele>1210.437012</ele>
  <time>2012-06-07T12:58:31Z</time>
</trkpt>
<trkpt lat="46.618895531" lon="6.361191273">
  <ele>1191.210693</ele>
  <time>2012-06-07T13:00:25Z</time>
</trkpt>
<trkpt lat="46.618981361" lon="6.361148357">
  <ele>1195.055908</ele>
  <time>2012-06-07T13:00:40Z</time>
</trkpt>
<trkpt lat="46.618916988" lon="6.361126900">
  <ele>1196.498291</ele>
  <time>2012-06-07T13:01:10Z</time>
</trkpt>
<trkpt lat="46.618852615" lon="6.361191273">
  <ele>1198.420654</ele>
  <time>2012-06-07T13:01:27Z</time>
</trkpt>
<trkpt lat="46.618037224" lon="6.361405849">
  <ele>1196.017578</ele>
  <time>2012-06-07T13:02:11Z</time>
</trkpt>
<trkpt lat="46.618959904" lon="6.361684799">
  <ele>1195.055908</ele>
  <time>2012-06-07T13:02:37Z</time>
</trkpt>
<trkpt lat="46.619646549" lon="6.361277103">
  <ele>1195.055908</ele>
  <time>2012-06-07T13:03:24Z</time>
</trkpt>
<trkpt lat="46.619496346" lon="6.361770630">
  <ele>1195.055908</ele>
  <time>2012-06-07T13:03:28Z</time>
</trkpt>
<trkpt lat="46.619410515" lon="6.361813545">
  <ele>1195.055908</ele>
  <time>2012-06-07T13:03:35Z</time>
</trkpt>
<trkpt lat="46.619582176" lon="6.361641884">
  <ele>1195.055908</ele>
  <time>2012-06-07T13:03:46Z</time>
</trkpt>
<trkpt lat="46.619839668" lon="6.361706257">
  <ele>1195.055908</ele>
  <time>2012-06-07T13:04:05Z</time>
</trkpt>
<trkpt lat="46.619303226" lon="6.362800598">
  <ele>1195.055908</ele>
  <time>2012-06-07T13:04:24Z</time>
</trkpt>
<trkpt lat="46.619431973" lon="6.362757683">
  <ele>1195.055908</ele>
  <time>2012-06-07T13:04:28Z</time>
</trkpt>
<trkpt lat="46.620204449" lon="6.361706257">
  <ele>1195.055908</ele>
  <time>2012-06-07T13:04:48Z</time>
</trkpt>
<trkpt lat="46.620612144" lon="6.361534595">
  <ele>1196.498291</ele>
  <time>2012-06-07T13:05:17Z</time>
</trkpt>
<trkpt lat="46.622157097" lon="6.361041069">
  <ele>1227.260254</ele>
  <time>2012-06-07T13:07:12Z</time>
</trkpt>
<trkpt lat="46.622993946" lon="6.360697746">
  <ele>1227.740723</ele>
  <time>2012-06-07T13:08:21Z</time>
</trkpt>
<trkpt lat="46.623916626" lon="6.360204220">
  <ele>1227.740723</ele>
  <time>2012-06-07T13:09:39Z</time>
</trkpt>
<trkpt lat="46.624238491" lon="6.360332966">
  <ele>1227.740723</ele>
  <time>2012-06-07T13:09:55Z</time>
</trkpt>
<trkpt lat="46.624410152" lon="6.360332966">
  <ele>1227.740723</ele>
  <time>2012-06-07T13:10:14Z</time>
</trkpt>
<trkpt lat="46.624732018" lon="6.360676289">
  <ele>1283.497314</ele>
  <time>2012-06-07T13:10:20Z</time>
</trkpt>
<trkpt lat="46.624796391" lon="6.360654831">
  <ele>1283.497314</ele>
  <time>2012-06-07T13:10:23Z</time>
</trkpt>
<trkpt lat="46.624968052" lon="6.360740662">
  <ele>1283.497314</ele>
  <time>2012-06-07T13:10:40Z</time>
</trkpt>
<trkpt lat="46.626019478" lon="6.360418797">
  <ele>1248.889893</ele>
  <time>2012-06-07T13:11:31Z</time>
</trkpt>
<trkpt lat="46.626856327" lon="6.360075474">
  <ele>1248.409180</ele>
  <time>2012-06-07T13:12:20Z</time>
</trkpt>
<trkpt lat="46.627156734" lon="6.360054016">
  <ele>1248.409180</ele>
  <time>2012-06-07T13:12:43Z</time>
</trkpt>
<trkpt lat="46.627650261" lon="6.360118389">
  <ele>1248.409180</ele>
  <time>2012-06-07T13:13:20Z</time>
</trkpt>
<trkpt lat="46.628701687" lon="6.359753609">
  <ele>1247.928711</ele>
  <time>2012-06-07T13:14:25Z</time>
</trkpt>
<trkpt lat="46.629087925" lon="6.359775066">
  <ele>1252.735107</ele>
  <time>2012-06-07T13:14:50Z</time>
</trkpt>
<trkpt lat="46.629152298" lon="6.359839439">
  <ele>1257.061035</ele>
  <time>2012-06-07T13:15:06Z</time>
</trkpt>
<trkpt lat="46.629173756" lon="6.359968185">
  <ele>1265.232422</ele>
  <time>2012-06-07T13:15:54Z</time>
</trkpt>
<trkpt lat="46.629796028" lon="6.360118389">
  <ele>1260.425781</ele>
  <time>2012-06-07T13:17:09Z</time>
</trkpt>
<trkpt lat="46.631340981" lon="6.360075474">
  <ele>1260.906494</ele>
  <time>2012-06-07T13:17:39Z</time>
</trkpt>
<trkpt lat="46.631984711" lon="6.360011101">
  <ele>1260.425781</ele>
  <time>2012-06-07T13:17:51Z</time>
</trkpt>
<trkpt lat="46.633229256" lon="6.359603405">
  <ele>1260.425781</ele>
  <time>2012-06-07T13:18:12Z</time>
</trkpt>
<trkpt lat="46.634795666" lon="6.358852386">
  <ele>1259.944824</ele>
  <time>2012-06-07T13:18:38Z</time>
</trkpt>
<trkpt lat="46.635975838" lon="6.358487606">
  <ele>1259.464355</ele>
  <time>2012-06-07T13:18:57Z</time>
</trkpt>
<trkpt lat="46.637156010" lon="6.358273029">
  <ele>1259.944824</ele>
  <time>2012-06-07T13:19:17Z</time>
</trkpt>
<trkpt lat="46.637649536" lon="6.357672215">
  <ele>1252.254395</ele>
  <time>2012-06-07T13:20:19Z</time>
</trkpt>
<trkpt lat="46.637864113" lon="6.357135773">
  <ele>1252.254395</ele>
  <time>2012-06-07T13:20:51Z</time>
</trkpt>
<trkpt lat="46.637907028" lon="6.356599331">
  <ele>1250.812500</ele>
  <time>2012-06-07T13:21:23Z</time>
</trkpt>
<trkpt lat="46.636748314" lon="6.355998516">
  <ele>1250.812500</ele>
  <time>2012-06-07T13:22:06Z</time>
</trkpt>
<trkpt lat="46.636705399" lon="6.355655193">
  <ele>1250.332031</ele>
  <time>2012-06-07T13:22:27Z</time>
</trkpt>
<trkpt lat="46.635332108" lon="6.354968548">
  <ele>1251.773926</ele>
  <time>2012-06-07T13:23:58Z</time>
</trkpt>
<trkpt lat="46.634366512" lon="6.354646683">
  <ele>1257.541748</ele>
  <time>2012-06-07T13:24:56Z</time>
</trkpt>
<trkpt lat="46.634109020" lon="6.354432106">
  <ele>1263.309814</ele>
  <time>2012-06-07T13:25:17Z</time>
</trkpt>
<trkpt lat="46.633937359" lon="6.354196072">
  <ele>1266.193604</ele>
  <time>2012-06-07T13:25:30Z</time>
</trkpt>
<trkpt lat="46.633422375" lon="6.353616714">
  <ele>1267.635498</ele>
  <time>2012-06-07T13:26:02Z</time>
</trkpt>
<trkpt lat="46.632950306" lon="6.353015900">
  <ele>1271.480713</ele>
  <time>2012-06-07T13:26:30Z</time>
</trkpt>
<trkpt lat="46.632349491" lon="6.352007389">
  <ele>1273.884033</ele>
  <time>2012-06-07T13:26:59Z</time>
</trkpt>
<trkpt lat="46.631898880" lon="6.351449490">
  <ele>1277.249023</ele>
  <time>2012-06-07T13:27:20Z</time>
</trkpt>
<trkpt lat="46.631641388" lon="6.350977421">
  <ele>1281.094238</ele>
  <time>2012-06-07T13:27:39Z</time>
</trkpt>
<trkpt lat="46.631405354" lon="6.350269318">
  <ele>1281.574707</ele>
  <time>2012-06-07T13:28:04Z</time>
</trkpt>
<trkpt lat="46.631212234" lon="6.350054741">
  <ele>1286.861816</ele>
  <time>2012-06-07T13:28:16Z</time>
</trkpt>
<trkpt lat="46.630933285" lon="6.349947453">
  <ele>1288.784668</ele>
  <time>2012-06-07T13:28:31Z</time>
</trkpt>
<trkpt lat="46.630718708" lon="6.349925995">
  <ele>1295.513916</ele>
  <time>2012-06-07T13:28:46Z</time>
</trkpt>
<trkpt lat="46.630740166" lon="6.349861622">
  <ele>1299.839844</ele>
  <time>2012-06-07T13:29:09Z</time>
</trkpt>
<trkpt lat="46.630718708" lon="6.349732876">
  <ele>1298.878418</ele>
  <time>2012-06-07T13:29:35Z</time>
</trkpt>
<trkpt lat="46.630482674" lon="6.349389553">
  <ele>1300.801025</ele>
  <time>2012-06-07T13:30:05Z</time>
</trkpt>
<trkpt lat="46.630332470" lon="6.348917484">
  <ele>1301.281738</ele>
  <time>2012-06-07T13:30:17Z</time>
</trkpt>
<trkpt lat="46.630353928" lon="6.348853111">
  <ele>1299.839844</ele>
  <time>2012-06-07T13:30:29Z</time>
</trkpt>
<trkpt lat="46.630353928" lon="6.348896027">
  <ele>1300.320557</ele>
  <time>2012-06-07T13:31:19Z</time>
</trkpt>
<trkpt lat="46.630461216" lon="6.348831654">
  <ele>1302.242920</ele>
  <time>2012-06-07T13:32:07Z</time>
</trkpt>
<trkpt lat="46.630804539" lon="6.348767281">
  <ele>1305.126953</ele>
  <time>2012-06-07T13:32:23Z</time>
</trkpt>
<trkpt lat="46.631255150" lon="6.348960400">
  <ele>1307.530273</ele>
  <time>2012-06-07T13:32:41Z</time>
</trkpt>
<trkpt lat="46.631684303" lon="6.349239349">
  <ele>1308.972412</ele>
  <time>2012-06-07T13:32:57Z</time>
</trkpt>
<trkpt lat="46.631941795" lon="6.349604130">
  <ele>1310.895020</ele>
  <time>2012-06-07T13:33:09Z</time>
</trkpt>
<trkpt lat="46.632242203" lon="6.350269318">
  <ele>1311.856445</ele>
  <time>2012-06-07T13:33:21Z</time>
</trkpt>
<trkpt lat="46.632413864" lon="6.350548267">
  <ele>1311.375732</ele>
  <time>2012-06-07T13:33:26Z</time>
</trkpt>
<trkpt lat="46.633143425" lon="6.350848675">
  <ele>1308.491699</ele>
  <time>2012-06-07T13:33:39Z</time>
</trkpt>
<trkpt lat="46.634173393" lon="6.351470947">
  <ele>1308.491699</ele>
  <time>2012-06-07T13:33:58Z</time>
</trkpt>
<trkpt lat="46.634838581" lon="6.352093220">
  <ele>1308.491699</ele>
  <time>2012-06-07T13:34:11Z</time>
</trkpt>
<trkpt lat="46.635782719" lon="6.352672577">
  <ele>1306.568848</ele>
  <time>2012-06-07T13:34:22Z</time>
</trkpt>
<trkpt lat="46.636104584" lon="6.352415085">
  <ele>1303.685059</ele>
  <time>2012-06-07T13:34:27Z</time>
</trkpt>
<trkpt lat="46.636555195" lon="6.352286339">
  <ele>1299.359131</ele>
  <time>2012-06-07T13:34:33Z</time>
</trkpt>
<trkpt lat="46.638014317" lon="6.352264881">
  <ele>1297.917236</ele>
  <time>2012-06-07T13:34:49Z</time>
</trkpt>
<trkpt lat="46.639430523" lon="6.352651119">
  <ele>1294.552490</ele>
  <time>2012-06-07T13:35:03Z</time>
</trkpt>
<trkpt lat="46.639688015" lon="6.354646683">
  <ele>1294.552490</ele>
  <time>2012-06-07T13:35:14Z</time>
</trkpt>
<trkpt lat="46.640503407" lon="6.356105804">
  <ele>1294.552490</ele>
  <time>2012-06-07T13:35:31Z</time>
</trkpt>
<trkpt lat="46.641790867" lon="6.355204582">
  <ele>1292.630127</ele>
  <time>2012-06-07T13:35:36Z</time>
</trkpt>
<trkpt lat="46.642670631" lon="6.354775429">
  <ele>1280.132813</ele>
  <time>2012-06-07T13:35:46Z</time>
</trkpt>
<trkpt lat="46.643099785" lon="6.354732513">
  <ele>1268.596924</ele>
  <time>2012-06-07T13:35:52Z</time>
</trkpt>
<trkpt lat="46.643421650" lon="6.354882717">
  <ele>1265.232422</ele>
  <time>2012-06-07T13:35:56Z</time>
</trkpt>
<trkpt lat="46.644902229" lon="6.355934143">
  <ele>1236.873291</ele>
  <time>2012-06-07T13:36:17Z</time>
</trkpt>
<trkpt lat="46.645438671" lon="6.356234550">
  <ele>1226.298828</ele>
  <time>2012-06-07T13:36:24Z</time>
</trkpt>
<trkpt lat="46.645803452" lon="6.356770992">
  <ele>1221.972900</ele>
  <time>2012-06-07T13:36:30Z</time>
</trkpt>
<trkpt lat="46.646146774" lon="6.356942654">
  <ele>1218.127686</ele>
  <time>2012-06-07T13:36:36Z</time>
</trkpt>
<trkpt lat="46.646511555" lon="6.356878281">
  <ele>1213.801758</ele>
  <time>2012-06-07T13:36:40Z</time>
</trkpt>
<trkpt lat="46.646962166" lon="6.357135773">
  <ele>1210.437012</ele>
  <time>2012-06-07T13:36:46Z</time>
</trkpt>
<trkpt lat="46.647047997" lon="6.357264519">
  <ele>1209.956299</ele>
  <time>2012-06-07T13:36:48Z</time>
</trkpt>
<trkpt lat="46.647133827" lon="6.357736588">
  <ele>1208.514404</ele>
  <time>2012-06-07T13:36:58Z</time>
</trkpt>
<trkpt lat="46.646854877" lon="6.357629299">
  <ele>1207.553223</ele>
  <time>2012-06-07T13:37:08Z</time>
</trkpt>
<trkpt lat="46.646361351" lon="6.357800961">
  <ele>1206.111084</ele>
  <time>2012-06-07T13:37:23Z</time>
</trkpt>
<trkpt lat="46.646039486" lon="6.358058453">
  <ele>1205.149902</ele>
  <time>2012-06-07T13:37:37Z</time>
</trkpt>
<trkpt lat="46.646189690" lon="6.358122826">
  <ele>1204.188721</ele>
  <time>2012-06-07T13:37:45Z</time>
</trkpt>
<trkpt lat="46.646511555" lon="6.358444691">
  <ele>1201.785400</ele>
  <time>2012-06-07T13:37:56Z</time>
</trkpt>
<trkpt lat="46.646597385" lon="6.358745098">
  <ele>1201.785400</ele>
  <time>2012-06-07T13:38:05Z</time>
</trkpt>
<trkpt lat="46.646704674" lon="6.359539032">
  <ele>1202.265869</ele>
  <time>2012-06-07T13:38:22Z</time>
</trkpt>
<trkpt lat="46.646704674" lon="6.360247135">
  <ele>1202.746582</ele>
  <time>2012-06-07T13:39:06Z</time>
</trkpt>
<trkpt lat="46.646876335" lon="6.360955238">
  <ele>1202.265869</ele>
  <time>2012-06-07T13:39:27Z</time>
</trkpt>
<trkpt lat="46.647326946" lon="6.361985207">
  <ele>1200.343506</ele>
  <time>2012-06-07T13:39:42Z</time>
</trkpt>
<trkpt lat="46.647498608" lon="6.362543106">
  <ele>1196.498291</ele>
  <time>2012-06-07T13:39:57Z</time>
</trkpt>
<trkpt lat="46.647691727" lon="6.363594532">
  <ele>1187.846191</ele>
  <time>2012-06-07T13:40:20Z</time>
</trkpt>
<trkpt lat="46.647949219" lon="6.364045143">
  <ele>1187.846191</ele>
  <time>2012-06-07T13:40:32Z</time>
</trkpt>
<trkpt lat="46.649000645" lon="6.365332603">
  <ele>1187.365479</ele>
  <time>2012-06-07T13:41:04Z</time>
</trkpt>
<trkpt lat="46.649343967" lon="6.365611553">
  <ele>1184.000977</ele>
  <time>2012-06-07T13:41:16Z</time>
</trkpt>
<trkpt lat="46.649365425" lon="6.365568638">
  <ele>1184.000977</ele>
  <time>2012-06-07T13:41:26Z</time>
</trkpt>
<trkpt lat="46.649665833" lon="6.365697384">
  <ele>1181.117188</ele>
  <time>2012-06-07T13:41:42Z</time>
</trkpt>
<trkpt lat="46.649751663" lon="6.365933418">
  <ele>1179.194092</ele>
  <time>2012-06-07T13:41:47Z</time>
</trkpt>
<trkpt lat="46.649365425" lon="6.366834641">
  <ele>1174.387695</ele>
  <time>2012-06-07T13:42:05Z</time>
</trkpt>
<trkpt lat="46.649000645" lon="6.367907524">
  <ele>1171.503662</ele>
  <time>2012-06-07T13:42:25Z</time>
</trkpt>
<trkpt lat="46.648828983" lon="6.368229389">
  <ele>1171.023193</ele>
  <time>2012-06-07T13:42:39Z</time>
</trkpt>
<trkpt lat="46.648786068" lon="6.368207932">
  <ele>1170.061768</ele>
  <time>2012-06-07T13:42:57Z</time>
</trkpt>
<trkpt lat="46.648828983" lon="6.367607117">
  <ele>1190.249512</ele>
  <time>2012-06-07T14:06:18Z</time>
</trkpt>
<trkpt lat="46.648700237" lon="6.367800236">
  <ele>1190.249512</ele>
  <time>2012-06-07T14:06:45Z</time>
</trkpt>
<trkpt lat="46.649043560" lon="6.367478371">
  <ele>1190.249512</ele>
  <time>2012-06-07T14:07:02Z</time>
</trkpt>
<trkpt lat="46.648979187" lon="6.367521286">
  <ele>1190.249512</ele>
  <time>2012-06-07T14:07:13Z</time>
</trkpt>
<trkpt lat="46.649000645" lon="6.367628574">
  <ele>1188.326904</ele>
  <time>2012-06-07T14:07:34Z</time>
</trkpt>
<trkpt lat="46.648957729" lon="6.367671490">
  <ele>1187.365479</ele>
  <time>2012-06-07T14:07:47Z</time>
</trkpt>
<trkpt lat="46.649065018" lon="6.367778778">
  <ele>1184.962402</ele>
  <time>2012-06-07T14:07:59Z</time>
</trkpt>
<trkpt lat="46.649172306" lon="6.367692947">
  <ele>1183.039551</ele>
  <time>2012-06-07T14:08:16Z</time>
</trkpt>
<trkpt lat="46.649386883" lon="6.367049217">
  <ele>1183.039551</ele>
  <time>2012-06-07T14:08:28Z</time>
</trkpt>
<trkpt lat="46.649880409" lon="6.366083622">
  <ele>1183.520264</ele>
  <time>2012-06-07T14:08:52Z</time>
</trkpt>
<trkpt lat="46.649880409" lon="6.365847588">
  <ele>1183.520264</ele>
  <time>2012-06-07T14:08:57Z</time>
</trkpt>
<trkpt lat="46.649644375" lon="6.365675926">
  <ele>1183.520264</ele>
  <time>2012-06-07T14:09:05Z</time>
</trkpt>
<trkpt lat="46.649343967" lon="6.365547180">
  <ele>1184.962402</ele>
  <time>2012-06-07T14:09:27Z</time>
</trkpt>
<trkpt lat="46.649086475" lon="6.365375519">
  <ele>1187.365479</ele>
  <time>2012-06-07T14:09:50Z</time>
</trkpt>
<trkpt lat="46.648807526" lon="6.365118027">
  <ele>1187.365479</ele>
  <time>2012-06-07T14:10:03Z</time>
</trkpt>
<trkpt lat="46.647906303" lon="6.363916397">
  <ele>1184.962402</ele>
  <time>2012-06-07T14:10:37Z</time>
</trkpt>
<trkpt lat="46.647670269" lon="6.363337040">
  <ele>1184.000977</ele>
  <time>2012-06-07T14:10:50Z</time>
</trkpt>
<trkpt lat="46.647562981" lon="6.362671852">
  <ele>1183.039551</ele>
  <time>2012-06-07T14:11:02Z</time>
</trkpt>
<trkpt lat="46.647455692" lon="6.362285614">
  <ele>1183.520264</ele>
  <time>2012-06-07T14:11:12Z</time>
</trkpt>
<trkpt lat="46.646962166" lon="6.360783577">
  <ele>1190.729980</ele>
  <time>2012-06-07T14:12:17Z</time>
</trkpt>
<trkpt lat="46.646790504" lon="6.360182762">
  <ele>1191.210693</ele>
  <time>2012-06-07T14:12:43Z</time>
</trkpt>
<trkpt lat="46.646726131" lon="6.359517574">
  <ele>1195.055908</ele>
  <time>2012-06-07T14:13:33Z</time>
</trkpt>
<trkpt lat="46.646683216" lon="6.359453201">
  <ele>1195.536621</ele>
  <time>2012-06-07T14:13:37Z</time>
</trkpt>
<trkpt lat="46.646554470" lon="6.358659267">
  <ele>1199.862793</ele>
  <time>2012-06-07T14:14:17Z</time>
</trkpt>
<trkpt lat="46.646425724" lon="6.358358860">
  <ele>1200.343506</ele>
  <time>2012-06-07T14:14:29Z</time>
</trkpt>
<trkpt lat="46.646296978" lon="6.358165741">
  <ele>1202.265869</ele>
  <time>2012-06-07T14:14:42Z</time>
</trkpt>
<trkpt lat="46.645867825" lon="6.358165741">
  <ele>1205.149902</ele>
  <time>2012-06-07T14:15:07Z</time>
</trkpt>
<trkpt lat="46.645288467" lon="6.358358860">
  <ele>1205.630615</ele>
  <time>2012-06-07T14:15:31Z</time>
</trkpt>
<trkpt lat="46.645073891" lon="6.358487606">
  <ele>1206.111084</ele>
  <time>2012-06-07T14:15:42Z</time>
</trkpt>
<trkpt lat="46.644816399" lon="6.358530521">
  <ele>1207.072510</ele>
  <time>2012-06-07T14:15:54Z</time>
</trkpt>
<trkpt lat="46.644086838" lon="6.358916759">
  <ele>1205.630615</ele>
  <time>2012-06-07T14:17:17Z</time>
</trkpt>
<trkpt lat="46.642949581" lon="6.358959675">
  <ele>1202.746582</ele>
  <time>2012-06-07T14:17:50Z</time>
</trkpt>
<trkpt lat="46.642220020" lon="6.359174252">
  <ele>1201.304688</ele>
  <time>2012-06-07T14:18:13Z</time>
</trkpt>
<trkpt lat="46.641662121" lon="6.359066963">
  <ele>1198.901367</ele>
  <time>2012-06-07T14:18:23Z</time>
</trkpt>
<trkpt lat="46.640653610" lon="6.358294487">
  <ele>1198.420654</ele>
  <time>2012-06-07T14:18:40Z</time>
</trkpt>
<trkpt lat="46.640546322" lon="6.358294487">
  <ele>1198.420654</ele>
  <time>2012-06-07T14:18:42Z</time>
</trkpt>
<trkpt lat="46.640224457" lon="6.358723640">
  <ele>1196.978760</ele>
  <time>2012-06-07T14:18:49Z</time>
</trkpt>
<trkpt lat="46.639902592" lon="6.359345913">
  <ele>1196.017578</ele>
  <time>2012-06-07T14:18:56Z</time>
</trkpt>
<trkpt lat="46.639602184" lon="6.360011101">
  <ele>1194.575195</ele>
  <time>2012-06-07T14:19:03Z</time>
</trkpt>
<trkpt lat="46.639001369" lon="6.360676289">
  <ele>1190.729980</ele>
  <time>2012-06-07T14:19:13Z</time>
</trkpt>
<trkpt lat="46.638057232" lon="6.362135410">
  <ele>1189.288086</ele>
  <time>2012-06-07T14:19:32Z</time>
</trkpt>
<trkpt lat="46.637005806" lon="6.363551617">
  <ele>1188.807617</ele>
  <time>2012-06-07T14:19:53Z</time>
</trkpt>
<trkpt lat="46.636404991" lon="6.364796162">
  <ele>1185.442871</ele>
  <time>2012-06-07T14:20:12Z</time>
</trkpt>
<trkpt lat="46.636126041" lon="6.365654469">
  <ele>1181.117188</ele>
  <time>2012-06-07T14:20:25Z</time>
</trkpt>
<trkpt lat="46.635890007" lon="6.366662979">
  <ele>1180.636475</ele>
  <time>2012-06-07T14:20:38Z</time>
</trkpt>
<trkpt lat="46.635696888" lon="6.366877556">
  <ele>1177.271729</ele>
  <time>2012-06-07T14:20:41Z</time>
</trkpt>
<trkpt lat="46.634945869" lon="6.367907524">
  <ele>1176.310303</ele>
  <time>2012-06-07T14:20:53Z</time>
</trkpt>
<trkpt lat="46.633508205" lon="6.367542744">
  <ele>1176.310303</ele>
  <time>2012-06-07T14:20:57Z</time>
</trkpt>
<trkpt lat="46.633958817" lon="6.367478371">
  <ele>1172.465088</ele>
  <time>2012-06-07T14:21:01Z</time>
</trkpt>
<trkpt lat="46.633765697" lon="6.367413998">
  <ele>1160.929199</ele>
  <time>2012-06-07T14:21:13Z</time>
</trkpt>
<trkpt lat="46.633186340" lon="6.366984844">
  <ele>1101.327637</ele>
  <time>2012-06-07T14:21:16Z</time>
</trkpt>
<trkpt lat="46.632843018" lon="6.366941929">
  <ele>1097.962891</ele>
  <time>2012-06-07T14:21:22Z</time>
</trkpt>
<trkpt lat="46.632091999" lon="6.367156506">
  <ele>1101.808350</ele>
  <time>2012-06-07T14:21:41Z</time>
</trkpt>
<trkpt lat="46.630976200" lon="6.366963387">
  <ele>1101.808350</ele>
  <time>2012-06-07T14:22:05Z</time>
</trkpt>
<trkpt lat="46.630804539" lon="6.367027760">
  <ele>1101.808350</ele>
  <time>2012-06-07T14:22:09Z</time>
</trkpt>
<trkpt lat="46.630182266" lon="6.367650032">
  <ele>1100.366455</ele>
  <time>2012-06-07T14:22:22Z</time>
</trkpt>
<trkpt lat="46.629323959" lon="6.369023323">
  <ele>1099.885498</ele>
  <time>2012-06-07T14:22:41Z</time>
</trkpt>
<trkpt lat="46.628916264" lon="6.370224953">
  <ele>1099.404785</ele>
  <time>2012-06-07T14:22:55Z</time>
</trkpt>
<trkpt lat="46.628723145" lon="6.371083260">
  <ele>1096.040283</ele>
  <time>2012-06-07T14:23:05Z</time>
</trkpt>
<trkpt lat="46.628637314" lon="6.371877193">
  <ele>1095.078857</ele>
  <time>2012-06-07T14:23:16Z</time>
</trkpt>
<trkpt lat="46.628465652" lon="6.372241974">
  <ele>1094.117676</ele>
  <time>2012-06-07T14:23:23Z</time>
</trkpt>
<trkpt lat="46.628143787" lon="6.372284889">
  <ele>1093.636963</ele>
  <time>2012-06-07T14:23:29Z</time>
</trkpt>
<trkpt lat="46.627929211" lon="6.372370720">
  <ele>1093.156250</ele>
  <time>2012-06-07T14:23:38Z</time>
</trkpt>
<trkpt lat="46.627457142" lon="6.371405125">
  <ele>1092.195068</ele>
  <time>2012-06-07T14:23:53Z</time>
</trkpt>
<trkpt lat="46.624431610" lon="6.367413998">
  <ele>1092.675781</ele>
  <time>2012-06-07T14:24:38Z</time>
</trkpt>
<trkpt lat="46.624946594" lon="6.369345188">
  <ele>1092.675781</ele>
  <time>2012-06-07T14:24:40Z</time>
</trkpt>
<trkpt lat="46.624345779" lon="6.369130611">
  <ele>1092.675781</ele>
  <time>2012-06-07T14:24:48Z</time>
</trkpt>
<trkpt lat="46.623809338" lon="6.369173527">
  <ele>1092.675781</ele>
  <time>2012-06-07T14:24:54Z</time>
</trkpt>
<trkpt lat="46.619646549" lon="6.370739937">
  <ele>1092.675781</ele>
  <time>2012-06-07T14:25:51Z</time>
</trkpt>
<trkpt lat="46.617844105" lon="6.369431019">
  <ele>1092.675781</ele>
  <time>2012-06-07T14:25:52Z</time>
</trkpt>
<trkpt lat="46.617307663" lon="6.369173527">
  <ele>1092.675781</ele>
  <time>2012-06-07T14:25:57Z</time>
</trkpt>
<trkpt lat="46.617865562" lon="6.368787289">
  <ele>1092.675781</ele>
  <time>2012-06-07T14:26:00Z</time>
</trkpt>
<trkpt lat="46.617929935" lon="6.370010376">
  <ele>1004.715088</ele>
  <time>2012-06-07T14:26:08Z</time>
</trkpt>
<trkpt lat="46.617844105" lon="6.370010376">
  <ele>1022.980225</ele>
  <time>2012-06-07T14:26:40Z</time>
</trkpt>
<trkpt lat="46.617865562" lon="6.370246410">
  <ele>1019.134766</ele>
  <time>2012-06-07T14:26:44Z</time>
</trkpt>
<trkpt lat="46.617972851" lon="6.370460987">
  <ele>1019.134766</ele>
  <time>2012-06-07T14:26:47Z</time>
</trkpt>
<trkpt lat="46.619367599" lon="6.372177601">
  <ele>1019.134766</ele>
  <time>2012-06-07T14:27:16Z</time>
</trkpt>
<trkpt lat="46.619410515" lon="6.372520924">
  <ele>1019.134766</ele>
  <time>2012-06-07T14:27:20Z</time>
</trkpt>
<trkpt lat="46.617929935" lon="6.373229027">
  <ele>1019.134766</ele>
  <time>2012-06-07T14:27:46Z</time>
</trkpt>
<trkpt lat="46.617650986" lon="6.374945641">
  <ele>1019.134766</ele>
  <time>2012-06-07T14:28:07Z</time>
</trkpt>
<trkpt lat="46.617672443" lon="6.375310421">
  <ele>1019.134766</ele>
  <time>2012-06-07T14:28:11Z</time>
</trkpt>
<trkpt lat="46.615333557" lon="6.375524998">
  <ele>1010.482910</ele>
  <time>2012-06-07T14:28:48Z</time>
</trkpt>
<trkpt lat="46.616084576" lon="6.375138760">
  <ele>1010.482910</ele>
  <time>2012-06-07T14:28:53Z</time>
</trkpt>
<trkpt lat="46.613895893" lon="6.373808384">
  <ele>1007.118408</ele>
  <time>2012-06-07T14:28:59Z</time>
</trkpt>
<trkpt lat="46.613767147" lon="6.374344826">
  <ele>871.091797</ele>
  <time>2012-06-07T14:29:08Z</time>
</trkpt>
<trkpt lat="46.612458229" lon="6.374301910">
  <ele>860.998047</ele>
  <time>2012-06-07T14:29:22Z</time>
</trkpt>
<trkpt lat="46.610269547" lon="6.374387741">
  <ele>860.998047</ele>
  <time>2012-06-07T14:29:44Z</time>
</trkpt>
<trkpt lat="46.608831882" lon="6.375353336">
  <ele>845.616943</ele>
  <time>2012-06-07T14:29:58Z</time>
</trkpt>
<trkpt lat="46.607694626" lon="6.376233101">
  <ele>839.368164</ele>
  <time>2012-06-07T14:30:10Z</time>
</trkpt>
<trkpt lat="46.607458591" lon="6.376469135">
  <ele>784.573242</ele>
  <time>2012-06-07T14:30:25Z</time>
</trkpt>
<trkpt lat="46.607458591" lon="6.376554966">
  <ele>787.937744</ele>
  <time>2012-06-07T14:30:49Z</time>
</trkpt>
<trkpt lat="46.607372761" lon="6.376748085">
  <ele>786.015137</ele>
  <time>2012-06-07T14:30:56Z</time>
</trkpt>
<trkpt lat="46.607265472" lon="6.376876831">
  <ele>785.053955</ele>
  <time>2012-06-07T14:31:01Z</time>
</trkpt>
<trkpt lat="46.607007980" lon="6.376705170">
  <ele>786.495850</ele>
  <time>2012-06-07T14:32:08Z</time>
</trkpt>
<trkpt lat="46.606042385" lon="6.376383305">
  <ele>784.573242</ele>
  <time>2012-06-07T14:32:35Z</time>
</trkpt>
<trkpt lat="46.605377197" lon="6.375954151">
  <ele>785.534424</ele>
  <time>2012-06-07T14:32:54Z</time>
</trkpt>
<trkpt lat="46.603574753" lon="6.374602318">
  <ele>786.015137</ele>
  <time>2012-06-07T14:33:39Z</time>
</trkpt>
<trkpt lat="46.603188515" lon="6.374495029">
  <ele>787.457031</ele>
  <time>2012-06-07T14:33:49Z</time>
</trkpt>
<trkpt lat="46.602630615" lon="6.374516487">
  <ele>786.015137</ele>
  <time>2012-06-07T14:34:00Z</time>
</trkpt>
<trkpt lat="46.602351665" lon="6.374473572">
  <ele>786.495850</ele>
  <time>2012-06-07T14:34:06Z</time>
</trkpt>
<trkpt lat="46.602029800" lon="6.374344826">
  <ele>788.418457</ele>
  <time>2012-06-07T14:34:15Z</time>
</trkpt>
<trkpt lat="46.601986885" lon="6.374387741">
  <ele>788.418457</ele>
  <time>2012-06-07T14:34:16Z</time>
</trkpt>
<trkpt lat="46.601750851" lon="6.375010014">
  <ele>786.976318</ele>
  <time>2012-06-07T14:34:28Z</time>
</trkpt>
<trkpt lat="46.601707935" lon="6.375696659">
  <ele>782.650635</ele>
  <time>2012-06-07T14:34:56Z</time>
</trkpt>
<trkpt lat="46.601686478" lon="6.375675201">
  <ele>783.131104</ele>
  <time>2012-06-07T14:35:13Z</time>
</trkpt>
<trkpt lat="46.601729393" lon="6.375675201">
  <ele>789.379639</ele>
  <time>2012-06-07T14:35:44Z</time>
</trkpt>
<trkpt lat="46.601686478" lon="6.376254559">
  <ele>785.534424</ele>
  <time>2012-06-07T14:35:54Z</time>
</trkpt>
<trkpt lat="46.601536274" lon="6.376791000">
  <ele>780.247314</ele>
  <time>2012-06-07T14:36:00Z</time>
</trkpt>
<trkpt lat="46.601343155" lon="6.377048492">
  <ele>775.921143</ele>
  <time>2012-06-07T14:36:04Z</time>
</trkpt>
<trkpt lat="46.601235867" lon="6.377112865">
  <ele>773.998535</ele>
  <time>2012-06-07T14:36:06Z</time>
</trkpt>
<trkpt lat="46.600978374" lon="6.377112865">
  <ele>771.595215</ele>
  <time>2012-06-07T14:36:10Z</time>
</trkpt>
<trkpt lat="46.600699425" lon="6.376919746">
  <ele>770.153320</ele>
  <time>2012-06-07T14:36:15Z</time>
</trkpt>
<trkpt lat="46.600506306" lon="6.376705170">
  <ele>768.711426</ele>
  <time>2012-06-07T14:36:19Z</time>
</trkpt>
<trkpt lat="46.600184441" lon="6.376619339">
  <ele>762.462646</ele>
  <time>2012-06-07T14:36:25Z</time>
</trkpt>
<trkpt lat="46.600098610" lon="6.376533508">
  <ele>761.020752</ele>
  <time>2012-06-07T14:36:27Z</time>
</trkpt>
<trkpt lat="46.599926949" lon="6.376276016">
  <ele>758.136963</ele>
  <time>2012-06-07T14:36:31Z</time>
</trkpt>
<trkpt lat="46.599841118" lon="6.375932693">
  <ele>755.252930</ele>
  <time>2012-06-07T14:36:35Z</time>
</trkpt>
<trkpt lat="46.599819660" lon="6.375310421">
  <ele>752.368896</ele>
  <time>2012-06-07T14:36:44Z</time>
</trkpt>
<trkpt lat="46.599841118" lon="6.375203133">
  <ele>749.965820</ele>
  <time>2012-06-07T14:37:07Z</time>
</trkpt>
<trkpt lat="46.599819660" lon="6.375160217">
  <ele>748.523682</ele>
  <time>2012-06-07T14:37:45Z</time>
</trkpt>
</trkseg>
</trk>
</gpx>
